• Join FlightAware (Why Join?)
  • Login
  • US Flag 
03:32AM EDT


 

Airport Tracker/Info


-or-


 

Live Flight TrackerFlight Track Log ✈ DAL6035 ✈ 19-Apr-2013 ✈ KMHT - KLGA

Flight Track Log - Related Links

Times and Time Zones

All times are in EDT time to prevent confusion due to time zone crossing. See the DAL6035 flight status page for this flight to view local times or setup timezone preferences in your user account.

Time Position Orientation Groundspeed Altitude Reporting Facility
EDT Latitude Longitude Course Direction KTS MPH feet Rate Location/Type
01:45PM 42.9167 -71.4167 231° Southwest 143 165 1,000  Level KA90
01:46PM 42.9000 -71.4333 216° Southwest 154 177 2,000 2,100 Climbing KA90
01:47PM 42.9000 -71.5000 270° West 210 242 4,600 2,040 Climbing KA90
01:48PM 42.9556 -71.5778 314° West 236 272 7,000 1,740 Climbing Boston Center
01:49PM 43.0147 -71.6564 316° Northwest 258 297 8,800 1,680 Climbing Boston Center
01:50PM 43.0358 -71.7328 291° West 238 274 10,400 1,500 Climbing Boston Center
01:51PM 42.5960 -71.9846 231° Southwest  Level FlightAware Approximate
01:51PM 43.0261 -71.8467 263° West 259 298 11,800  Level Boston Center
01:52PM 43.0142 -71.9403 260° West 288 331 12,900 1,080 Climbing Boston Center
01:53PM 42.9981 -72.0683 260° West 303 349 14,000 540 Climbing Boston Center
01:54PM 42.9817 -72.1819 259° West 331 381 14,000  Level Boston Center
01:56PM 42.8769 -72.2654 210° Southwest  Level Estimated
01:56PM 42.8714 -72.3919 210° Southwest 327 376 14,000  Level Boston Center
01:57PM 42.8006 -72.4769 221° Southwest 332 382 14,000  Level Boston Center
01:58PM 42.7297 -72.5617 221° Southwest 338 389 14,000 -60 Level Boston Center
01:59PM 42.6608 -72.6489 223° Southwest 343 395 13,900  Descending Boston Center
02:00PM 42.5939 -72.7136 215° Southwest 337 388 14,000  Climbing Boston Center
02:01PM 42.5125 -72.7978 217° Southwest 344 396 14,000  Level Boston Center
02:02PM 42.4433 -72.8678 217° Southwest 344 396 14,000  Level Boston Center
02:03PM 42.3617 -72.9514 217° Southwest 344 396 14,000  Level Boston Center
02:04PM 42.2925 -73.0239 218° Southwest 344 396 14,000  Level Boston Center
02:05PM 42.2108 -73.1072 217° Southwest 349 402 14,000  Level Boston Center
02:06PM 42.1436 -73.1792 218° Southwest 349 402 14,000  Level Boston Center
02:07PM 42.0597 -73.2594 215° Southwest 349 402 14,000  Level Boston Center
02:08PM 41.9947 -73.3311 219° Southwest 349 402 14,000  Level Boston Center
02:09PM 41.9147 -73.4081 216° Southwest 354 407 14,000  Level Boston Center
02:10PM 41.8328 -73.4906 217° Southwest 349 402 14,000 -480 Level Boston Center
02:11PM 41.7656 -73.5589 217° Southwest 349 402 13,100 -1,260 Descending Boston Center
02:12PM 41.6753 -73.6186 206° Southwest 339 390 11,600 -1,440 Descending Boston Center
02:13PM 41.6125 -73.6508 201° Southwest 299 344 10,300 -1,380 Descending Boston Center
02:14PM 41.5500 -73.6833 201° Southwest 223 257 9,100 -720 Descending New York TRACON
02:15PM 41.5000 -73.7167 207° Southwest 209 241 9,000 -720 Descending New York TRACON
02:16PM 41.4500 -73.7333 194° South 225 259 7,800 -1,320 Descending New York TRACON
02:17PM 41.3833 -73.7667 201° Southwest 216 249 6,600 -1,200 Descending New York TRACON
02:18PM 41.3333 -73.7833 194° South 238 274 5,400 -1,140 Descending New York TRACON
02:19PM 41.2667 -73.7333 151° Southeast 249 287 4,300 -780 Descending New York TRACON
02:20PM 41.2167 -73.6833 143° Southeast 242 278 4,000 -180 Descending New York TRACON
02:21PM 41.1500 -73.6667 169° South 219 252 4,000  Level New York TRACON
02:22PM 41.1000 -73.6833 194° South 217 250 4,000  Level New York TRACON
02:23PM 41.0333 -73.7000 191° South 220 253 4,000 -420 Level New York TRACON
02:24PM 40.9833 -73.7333 207° Southwest 214 246 3,300 -1,020 Descending New York TRACON
02:25PM 40.9333 -73.7500 194° South 200 230 2,000 -660 Descending New York TRACON
02:26PM 40.9000 -73.7833 217° Southwest 164 189 2,000 -180 Level New York TRACON
02:27PM 40.8667 -73.8167 217° Southwest 143 165 1,700 -540 Descending New York TRACON
02:28PM 40.8333 -73.8333 201° Southwest 135 155 1,000 -720 Descending New York TRACON
02:29PM 40.8000 -73.8667 217° Southwest 149 171 300 -720 Descending New York TRACON